createdAt,value
2018-12-29T00:01:55.351Z,5.20
2018-12-29T00:03:59.840Z,5.10
2018-12-29T00:06:04.256Z,5.20
2018-12-29T00:08:08.594Z,5.20
2018-12-29T00:10:13.092Z,5.20
2018-12-29T00:12:17.463Z,5.20
2018-12-29T00:14:21.822Z,5.20
2018-12-29T00:16:26.341Z,5.20
2018-12-29T00:18:30.755Z,5.20
2018-12-29T00:20:35.202Z,5.20
2018-12-29T00:22:39.746Z,5.30
2018-12-29T00:24:44.090Z,5.20
2018-12-29T00:26:48.448Z,5.20
2018-12-29T00:28:52.957Z,5.30
2018-12-29T00:30:57.846Z,5.20
2018-12-29T00:33:02.200Z,5.30
2018-12-29T00:35:06.670Z,5.30
2018-12-29T00:37:11.177Z,5.40
2018-12-29T00:39:15.531Z,5.30
2018-12-29T00:41:19.943Z,5.30
2018-12-29T00:43:24.307Z,5.30
2018-12-29T00:45:28.716Z,5.30
2018-12-29T00:47:33.091Z,5.30
2018-12-29T00:49:37.450Z,5.40
2018-12-29T00:51:41.818Z,5.40
2018-12-29T00:53:46.210Z,5.30
2018-12-29T00:55:50.575Z,5.30
2018-12-29T00:57:55.027Z,5.40
2018-12-29T00:59:59.894Z,5.40
2018-12-29T01:02:04.658Z,5.50
2018-12-29T01:04:08.986Z,5.40
2018-12-29T01:06:13.451Z,5.40
2018-12-29T01:08:17.827Z,5.50
2018-12-29T01:10:22.258Z,5.50
2018-12-29T01:12:26.678Z,5.50
2018-12-29T01:14:31.064Z,5.50
2018-12-29T01:16:35.463Z,5.50
2018-12-29T01:18:39.838Z,5.60
2018-12-29T01:20:44.374Z,5.50
2018-12-29T01:22:48.734Z,5.60
2018-12-29T01:24:53.063Z,5.50
2018-12-29T01:26:57.532Z,5.50
2018-12-29T01:29:01.934Z,5.50
2018-12-29T01:31:06.333Z,5.50
2018-12-29T01:33:10.701Z,5.50
2018-12-29T01:35:15.102Z,5.50
2018-12-29T01:37:19.546Z,5.50
2018-12-29T01:39:23.901Z,5.60
2018-12-29T01:41:28.340Z,5.60
2018-12-29T01:43:32.718Z,5.60
2018-12-29T01:45:37.099Z,5.70
2018-12-29T01:47:41.521Z,5.70
2018-12-29T01:49:46.388Z,5.70
2018-12-29T01:51:50.782Z,5.70
2018-12-29T01:53:55.234Z,5.70
2018-12-29T01:55:59.649Z,5.60
2018-12-29T01:58:04.052Z,5.60
2018-12-29T02:00:08.503Z,5.70
2018-12-29T02:02:13.019Z,5.70
2018-12-29T02:04:17.375Z,5.60
2018-12-29T02:06:21.721Z,5.70
2018-12-29T02:08:26.118Z,5.70
2018-12-29T02:10:30.480Z,5.70
2018-12-29T02:12:41.151Z,5.70
2018-12-29T02:14:45.574Z,5.70
2018-12-29T02:16:49.991Z,5.70
2018-12-29T02:18:54.410Z,5.70
2018-12-29T02:20:58.849Z,5.70
2018-12-29T02:23:03.202Z,5.70
2018-12-29T02:25:07.651Z,5.80
2018-12-29T02:27:12.020Z,5.80
2018-12-29T02:29:16.362Z,5.80
2018-12-29T02:31:20.777Z,5.80
2018-12-29T02:33:25.136Z,5.80
2018-12-29T02:35:29.532Z,5.80
2018-12-29T02:37:33.915Z,5.80
2018-12-29T02:39:38.258Z,5.70
2018-12-29T02:41:42.626Z,5.80
2018-12-29T02:43:47.936Z,5.70
2018-12-29T02:45:52.303Z,5.70
2018-12-29T02:47:56.669Z,5.70
2018-12-29T02:50:01.123Z,5.70
2018-12-29T02:52:05.499Z,5.70
2018-12-29T02:54:09.950Z,5.70
2018-12-29T02:56:14.375Z,5.70
2018-12-29T02:58:18.741Z,5.70
2018-12-29T03:00:23.246Z,5.60
2018-12-29T03:02:27.945Z,5.70
2018-12-29T03:04:32.353Z,5.70
2018-12-29T03:06:36.726Z,5.70
2018-12-29T03:08:41.091Z,5.70
2018-12-29T03:10:45.503Z,5.70
2018-12-29T03:12:49.891Z,5.70
2018-12-29T03:14:54.243Z,5.70
2018-12-29T03:16:58.681Z,5.70
2018-12-29T03:19:03.801Z,5.70
2018-12-29T03:21:08.194Z,5.70
2018-12-29T03:23:12.638Z,5.70
2018-12-29T03:25:17.727Z,5.60
2018-12-29T03:27:22.115Z,5.60
2018-12-29T03:29:26.474Z,5.60
2018-12-29T03:31:31.053Z,5.60
2018-12-29T03:33:35.415Z,5.60
2018-12-29T03:35:39.778Z,5.60
2018-12-29T03:37:44.197Z,5.60
2018-12-29T03:39:48.621Z,5.70
2018-12-29T03:41:52.954Z,5.60
2018-12-29T03:43:57.350Z,5.70
2018-12-29T03:46:01.811Z,5.60
2018-12-29T03:48:06.215Z,5.50
2018-12-29T03:50:10.699Z,5.50
2018-12-29T03:52:15.191Z,5.50
2018-12-29T03:54:19.533Z,5.50
2018-12-29T03:56:23.925Z,5.50
2018-12-29T03:58:28.314Z,5.50
2018-12-29T04:00:32.685Z,5.60
2018-12-29T04:02:37.064Z,5.50
2018-12-29T04:04:41.420Z,5.60
2018-12-29T04:06:45.777Z,5.60
2018-12-29T04:09:01.322Z,5.60
2018-12-29T04:11:05.711Z,5.60
2018-12-29T04:13:10.111Z,5.60
2018-12-29T04:15:14.470Z,5.60
2018-12-29T04:17:19.607Z,5.60
2018-12-29T04:19:24.005Z,5.60
2018-12-29T04:21:28.346Z,5.60
2018-12-29T04:23:33.340Z,5.60
2018-12-29T04:25:37.728Z,5.60
2018-12-29T04:27:42.089Z,5.60
2018-12-29T04:29:46.463Z,5.50
2018-12-29T04:31:50.831Z,5.50
2018-12-29T04:33:55.195Z,5.60
2018-12-29T04:35:59.617Z,5.60
2018-12-29T04:38:04.012Z,5.60
2018-12-29T04:40:08.426Z,5.50
2018-12-29T04:42:12.840Z,5.50
2018-12-29T04:44:17.214Z,5.50
2018-12-29T04:46:21.596Z,5.50
2018-12-29T04:48:25.970Z,5.50
2018-12-29T04:50:30.386Z,5.50
2018-12-29T04:52:34.870Z,5.50
2018-12-29T04:54:39.250Z,5.50
2018-12-29T04:56:43.635Z,5.50
2018-12-29T04:58:47.964Z,5.50
2018-12-29T05:00:52.366Z,5.50
2018-12-29T05:02:56.782Z,5.50
2018-12-29T05:05:01.224Z,5.50
2018-12-29T05:07:06.703Z,5.60
2018-12-29T05:09:11.114Z,5.60
2018-12-29T05:11:15.493Z,5.60
2018-12-29T05:13:19.849Z,5.60
2018-12-29T05:15:24.231Z,5.60
2018-12-29T05:17:28.700Z,5.60
2018-12-29T05:19:33.078Z,5.70
2018-12-29T05:21:37.473Z,5.70
2018-12-29T05:23:41.947Z,5.70
2018-12-29T05:25:46.278Z,5.70
2018-12-29T05:27:51.205Z,5.70
2018-12-29T05:29:55.686Z,5.70
2018-12-29T05:32:00.055Z,5.70
2018-12-29T05:34:04.512Z,5.70
2018-12-29T05:36:09.079Z,5.80
2018-12-29T05:38:13.468Z,5.70
2018-12-29T05:40:17.953Z,5.80
2018-12-29T05:42:22.341Z,5.70
2018-12-29T05:44:26.718Z,5.70
2018-12-29T05:46:37.592Z,5.80
2018-12-29T05:48:41.974Z,5.80
2018-12-29T05:50:46.314Z,5.70
2018-12-29T05:52:50.668Z,5.80
2018-12-29T05:54:55.046Z,5.80
2018-12-29T05:56:59.396Z,5.80
2018-12-29T05:59:03.901Z,5.80
2018-12-29T06:01:08.299Z,5.80
2018-12-29T06:03:12.738Z,5.80
2018-12-29T06:05:17.115Z,5.80
2018-12-29T06:07:21.607Z,5.90
2018-12-29T06:09:25.974Z,5.90
2018-12-29T06:11:30.338Z,5.90
2018-12-29T06:13:34.742Z,5.90
2018-12-29T06:15:39.081Z,5.90
2018-12-29T06:17:43.422Z,6.00
2018-12-29T06:19:47.807Z,5.90
2018-12-29T06:21:52.314Z,5.90
2018-12-29T06:23:56.646Z,5.90
2018-12-29T06:26:01.032Z,6.00
2018-12-29T06:28:05.424Z,6.00
2018-12-29T06:30:09.847Z,6.00
2018-12-29T06:32:14.374Z,6.00
2018-12-29T06:34:18.731Z,6.00
2018-12-29T06:36:23.094Z,6.00
2018-12-29T06:38:27.514Z,6.00
2018-12-29T06:40:31.914Z,6.00
2018-12-29T06:42:36.375Z,6.00
2018-12-29T06:44:40.724Z,6.00
2018-12-29T06:46:45.096Z,6.00
2018-12-29T06:48:49.470Z,6.00
2018-12-29T06:50:53.833Z,5.90
2018-12-29T06:52:58.230Z,6.00
2018-12-29T06:55:02.575Z,6.00
2018-12-29T06:57:13.610Z,6.00
2018-12-29T06:59:18.024Z,6.00
2018-12-29T07:01:22.369Z,6.00
2018-12-29T07:03:26.758Z,6.00
2018-12-29T07:05:31.115Z,6.00
2018-12-29T07:07:35.500Z,6.00
2018-12-29T07:09:40.706Z,6.00
2018-12-29T07:11:45.051Z,6.00
2018-12-29T07:13:49.476Z,6.00
2018-12-29T07:15:53.929Z,6.00
2018-12-29T07:17:58.385Z,6.00
2018-12-29T07:20:02.851Z,6.10
2018-12-29T07:22:07.287Z,6.00
2018-12-29T07:24:11.695Z,6.10
2018-12-29T07:26:16.053Z,6.10
2018-12-29T07:28:20.455Z,6.10
2018-12-29T07:30:24.969Z,6.10
2018-12-29T07:32:29.306Z,6.10
2018-12-29T07:34:33.664Z,6.10
2018-12-29T07:36:38.076Z,6.10
2018-12-29T07:38:42.494Z,6.10
2018-12-29T07:40:46.864Z,6.10
2018-12-29T07:42:51.280Z,6.10
2018-12-29T07:44:55.653Z,6.10
2018-12-29T07:47:00.047Z,6.10
2018-12-29T07:49:04.402Z,6.10
2018-12-29T07:51:08.840Z,6.10
2018-12-29T07:53:13.238Z,6.10
2018-12-29T07:55:17.603Z,6.10
2018-12-29T07:57:22.042Z,6.20
2018-12-29T07:59:26.479Z,6.20
2018-12-29T08:01:30.869Z,6.20
2018-12-29T08:03:35.221Z,6.20
2018-12-29T08:05:39.657Z,6.20
2018-12-29T08:07:44.035Z,6.20
2018-12-29T08:09:48.453Z,6.20
2018-12-29T08:11:52.809Z,6.20
2018-12-29T08:13:57.306Z,6.30
2018-12-29T08:16:01.675Z,6.20
2018-12-29T08:18:06.028Z,6.30
2018-12-29T08:20:10.776Z,6.20
2018-12-29T08:22:15.129Z,6.30
2018-12-29T08:24:19.524Z,6.30
2018-12-29T08:26:23.997Z,6.30
2018-12-29T08:28:28.375Z,6.30
2018-12-29T08:30:32.776Z,6.40
2018-12-29T08:32:37.155Z,6.40
2018-12-29T08:34:41.518Z,6.40
2018-12-29T08:36:45.912Z,6.50
2018-12-29T08:38:50.271Z,6.40
2018-12-29T08:40:54.687Z,6.40
2018-12-29T08:42:59.069Z,6.40
2018-12-29T08:47:50.976Z,6.50
2018-12-29T08:49:56.536Z,6.40
2018-12-29T08:52:00.882Z,6.40
2018-12-29T08:54:05.271Z,6.40
2018-12-29T08:56:09.655Z,6.50
2018-12-29T08:58:14.610Z,6.50
2018-12-29T09:00:19.132Z,6.60
2018-12-29T09:02:23.753Z,6.60
2018-12-29T09:04:28.220Z,6.50
2018-12-29T09:06:32.545Z,6.60
2018-12-29T09:08:36.912Z,6.60
2018-12-29T09:10:41.302Z,6.60
2018-12-29T09:12:45.638Z,6.60
2018-12-29T09:14:51.631Z,6.60
2018-12-29T09:16:54.416Z,6.60
2018-12-29T09:18:58.859Z,6.70
2018-12-29T09:21:03.241Z,6.60
2018-12-29T09:23:08.614Z,6.70
2018-12-29T09:25:13.816Z,6.70
2018-12-29T09:27:18.240Z,6.80
2018-12-29T09:29:22.588Z,6.80
2018-12-29T09:31:27.128Z,6.80
2018-12-29T09:33:31.983Z,6.80
2018-12-29T09:35:36.438Z,6.90
2018-12-29T09:37:40.841Z,6.80
2018-12-29T09:39:45.221Z,6.90
2018-12-29T09:41:49.606Z,6.90
2018-12-29T09:43:54.170Z,6.90
2018-12-29T09:45:58.522Z,6.90
2018-12-29T09:48:02.903Z,6.90
2018-12-29T09:50:07.540Z,6.90
2018-12-29T09:52:11.951Z,7.00
2018-12-29T09:54:16.374Z,7.00
2018-12-29T09:56:20.806Z,7.00
2018-12-29T09:58:25.165Z,7.00
2018-12-29T10:00:30.521Z,7.10
2018-12-29T10:02:34.941Z,7.10
2018-12-29T10:04:39.304Z,7.10
2018-12-29T10:06:43.706Z,7.10
2018-12-29T10:08:48.077Z,7.10
2018-12-29T10:10:52.418Z,7.10
2018-12-29T10:12:56.824Z,7.10
2018-12-29T10:15:01.295Z,7.10
2018-12-29T10:17:05.693Z,7.10
2018-12-29T10:19:10.072Z,7.10
2018-12-29T10:21:14.521Z,7.10
2018-12-29T10:23:18.946Z,7.10
2018-12-29T10:25:23.289Z,7.20
2018-12-29T10:27:27.655Z,7.20
2018-12-29T10:29:33.052Z,7.20
2018-12-29T10:31:37.512Z,7.20
2018-12-29T10:33:41.890Z,7.20
2018-12-29T10:35:46.284Z,7.20
2018-12-29T10:37:50.726Z,7.20
2018-12-29T10:39:55.100Z,7.30
2018-12-29T10:41:59.518Z,7.30
2018-12-29T10:44:03.938Z,7.30
2018-12-29T10:46:08.315Z,7.40
2018-12-29T10:48:12.710Z,7.40
2018-12-29T10:50:17.230Z,7.40
2018-12-29T10:52:21.745Z,7.40
2018-12-29T10:54:26.172Z,7.40
2018-12-29T10:56:30.583Z,7.40
2018-12-29T10:58:34.997Z,7.40
2018-12-29T11:00:39.952Z,7.40
2018-12-29T11:02:44.332Z,7.40
2018-12-29T11:04:48.701Z,7.50
2018-12-29T11:06:53.104Z,7.50
2018-12-29T11:08:57.835Z,7.50
2018-12-29T11:11:02.287Z,7.50
2018-12-29T11:13:06.728Z,7.50
2018-12-29T11:15:11.114Z,7.50
2018-12-29T11:17:15.495Z,7.50
2018-12-29T11:19:19.963Z,7.50
2018-12-29T11:21:24.334Z,7.50
2018-12-29T11:23:28.682Z,7.60
2018-12-29T11:25:33.982Z,7.60
2018-12-29T11:27:38.459Z,7.60
2018-12-29T11:29:42.922Z,7.60
2018-12-29T11:31:47.342Z,7.60
2018-12-29T11:33:51.711Z,7.60
2018-12-29T11:35:56.736Z,7.60
2018-12-29T11:38:00.486Z,7.60
2018-12-29T11:40:05.007Z,7.60
2018-12-29T11:42:09.429Z,7.60
2018-12-29T11:44:14.354Z,7.60
2018-12-29T11:46:20.087Z,7.70
2018-12-29T11:48:24.523Z,7.70
2018-12-29T11:50:28.990Z,7.60
2018-12-29T11:52:33.431Z,7.70
2018-12-29T11:54:37.826Z,7.70
2018-12-29T11:56:42.281Z,7.80
2018-12-29T11:58:46.779Z,7.80
2018-12-29T12:00:51.197Z,7.80
2018-12-29T12:02:55.604Z,7.80
2018-12-29T12:05:00.001Z,7.80
2018-12-29T12:07:05.519Z,7.80
2018-12-29T12:09:09.930Z,7.70
2018-12-29T12:11:14.326Z,7.80
2018-12-29T12:13:18.821Z,7.80
2018-12-29T12:15:29.974Z,7.80
2018-12-29T12:17:34.454Z,7.80
2018-12-29T12:19:38.842Z,7.80
2018-12-29T12:21:43.274Z,7.80
2018-12-29T12:23:47.919Z,7.80
2018-12-29T12:25:53.306Z,7.80
2018-12-29T12:27:56.702Z,7.80
2018-12-29T12:30:01.106Z,7.80
2018-12-29T12:32:05.642Z,7.70
2018-12-29T12:34:10.019Z,7.80
2018-12-29T12:36:14.446Z,7.80
2018-12-29T12:40:36.098Z,7.80
2018-12-29T12:42:40.482Z,7.80
2018-12-29T12:44:44.854Z,7.80
2018-12-29T12:46:49.357Z,7.80
2018-12-29T12:48:53.674Z,7.90
2018-12-29T12:50:58.086Z,7.90
2018-12-29T12:53:02.502Z,7.80
2018-12-29T12:55:06.901Z,7.80
2018-12-29T12:57:11.278Z,7.90
2018-12-29T12:59:15.701Z,7.90
2018-12-29T13:01:20.092Z,7.90
2018-12-29T13:03:24.539Z,7.90
2018-12-29T13:05:28.906Z,8.00
2018-12-29T13:07:33.335Z,8.00
2018-12-29T13:09:37.685Z,8.00
2018-12-29T13:11:42.049Z,8.00
2018-12-29T13:13:46.459Z,8.00
2018-12-29T13:15:50.858Z,8.00
2018-12-29T13:17:56.336Z,8.00
2018-12-29T13:20:00.977Z,8.00
2018-12-29T13:22:05.402Z,8.10
2018-12-29T13:24:10.495Z,8.10
2018-12-29T13:26:14.853Z,8.10
2018-12-29T13:28:19.239Z,8.10
2018-12-29T13:30:23.674Z,8.10
2018-12-29T13:32:28.168Z,8.10
2018-12-29T13:34:32.595Z,8.20
2018-12-29T13:36:36.985Z,8.10
2018-12-29T13:38:41.380Z,8.10
2018-12-29T13:40:45.873Z,8.10
2018-12-29T13:42:50.438Z,8.20
2018-12-29T13:44:54.962Z,8.20
2018-12-29T13:46:59.354Z,8.10
2018-12-29T13:49:03.819Z,8.10
2018-12-29T13:51:08.289Z,8.10
2018-12-29T13:53:12.631Z,8.10
2018-12-29T13:55:16.998Z,8.10
2018-12-29T13:57:22.052Z,8.00
2018-12-29T13:59:26.446Z,8.00
2018-12-29T14:01:30.923Z,8.10
2018-12-29T14:03:35.353Z,8.00
2018-12-29T14:05:40.342Z,8.00
2018-12-29T14:07:44.748Z,8.00
2018-12-29T14:09:49.159Z,8.10
2018-12-29T14:11:53.580Z,8.00
2018-12-29T14:13:57.972Z,8.00
2018-12-29T14:16:02.371Z,8.00
2018-12-29T14:18:06.787Z,8.00
2018-12-29T14:20:11.281Z,8.00
2018-12-29T14:22:15.703Z,8.00
2018-12-29T14:24:20.134Z,8.10
2018-12-29T14:26:24.586Z,8.00
2018-12-29T14:28:29.046Z,8.00
2018-12-29T14:30:33.447Z,8.00
2018-12-29T14:32:37.911Z,8.00
2018-12-29T14:34:42.328Z,8.00
2018-12-29T14:36:46.699Z,8.00
2018-12-29T14:38:51.136Z,8.00
2018-12-29T14:40:55.609Z,8.00
2018-12-29T14:42:59.975Z,8.00
2018-12-29T14:45:04.421Z,8.00
2018-12-29T14:47:08.846Z,8.00
2018-12-29T14:49:13.198Z,8.10
2018-12-29T14:51:17.571Z,8.00
2018-12-29T14:53:21.945Z,8.00
2018-12-29T14:55:26.402Z,7.90
2018-12-29T14:57:30.863Z,8.00
2018-12-29T14:59:35.238Z,7.90
2018-12-29T15:01:39.662Z,8.00
2018-12-29T15:03:44.098Z,7.90
2018-12-29T15:05:48.539Z,8.00
2018-12-29T15:07:53.592Z,8.00
2018-12-29T15:09:58.018Z,7.90
2018-12-29T15:12:02.379Z,7.90
2018-12-29T15:14:06.742Z,7.90
2018-12-29T15:16:11.158Z,7.90
2018-12-29T15:18:15.522Z,7.90
2018-12-29T15:20:19.981Z,7.90
2018-12-29T15:22:24.383Z,7.90
2018-12-29T15:24:28.843Z,7.90
2018-12-29T15:26:33.372Z,7.90
2018-12-29T15:28:38.215Z,7.90
2018-12-29T15:30:42.577Z,7.90
2018-12-29T15:32:47.042Z,7.90
2018-12-29T15:34:51.450Z,7.80
2018-12-29T15:36:55.980Z,7.80
2018-12-29T15:39:00.669Z,7.80
2018-12-29T15:41:05.082Z,7.80
2018-12-29T15:43:09.638Z,7.80
2018-12-29T15:45:14.055Z,7.80
2018-12-29T15:47:18.437Z,7.80
2018-12-29T15:49:22.888Z,7.70
2018-12-29T15:51:27.294Z,7.70
2018-12-29T15:53:31.776Z,7.60
2018-12-29T15:55:36.251Z,7.60
2018-12-29T15:57:40.727Z,7.60
2018-12-29T15:59:45.118Z,7.60
2018-12-29T16:01:49.666Z,7.60
2018-12-29T16:03:54.067Z,7.60
2018-12-29T16:05:58.581Z,7.50
2018-12-29T16:08:03.720Z,7.50
2018-12-29T16:10:08.261Z,7.60
2018-12-29T16:12:12.759Z,7.50
2018-12-29T16:14:17.156Z,7.50
2018-12-29T16:16:21.611Z,7.50
2018-12-29T16:18:26.556Z,7.50
2018-12-29T16:20:30.991Z,7.50
2018-12-29T16:22:35.386Z,7.40
2018-12-29T16:24:40.182Z,7.40
2018-12-29T16:26:44.599Z,7.40
2018-12-29T16:28:49.047Z,7.40
2018-12-29T16:30:53.419Z,7.40
2018-12-29T16:32:58.295Z,7.40
2018-12-29T16:35:02.717Z,7.40
2018-12-29T16:37:07.206Z,7.40
2018-12-29T16:39:11.713Z,7.40
2018-12-29T16:41:16.089Z,7.40
2018-12-29T16:43:20.469Z,7.40
2018-12-29T16:45:24.917Z,7.40
2018-12-29T16:47:29.331Z,7.40
2018-12-29T16:49:33.807Z,7.40
2018-12-29T16:51:38.213Z,7.40
2018-12-29T16:53:42.625Z,7.50
2018-12-29T16:55:47.059Z,7.40
2018-12-29T16:57:51.486Z,7.40
2018-12-29T16:59:55.818Z,7.30
2018-12-29T17:02:00.330Z,7.40
2018-12-29T17:04:04.718Z,7.40
2018-12-29T17:06:09.141Z,7.40
2018-12-29T17:08:13.534Z,7.40
2018-12-29T17:10:17.982Z,7.40
2018-12-29T17:12:22.471Z,7.40
2018-12-29T17:14:26.910Z,7.40
2018-12-29T17:16:31.381Z,7.40
2018-12-29T17:18:35.852Z,7.40
2018-12-29T17:20:40.237Z,7.40
2018-12-29T17:22:45.469Z,7.50
2018-12-29T17:24:49.890Z,7.40
2018-12-29T17:26:54.300Z,7.50
2018-12-29T17:28:59.823Z,7.50
2018-12-29T17:31:04.214Z,7.50
2018-12-29T17:33:08.658Z,7.50
2018-12-29T17:35:13.151Z,7.50
2018-12-29T17:37:17.514Z,7.50
2018-12-29T17:39:21.892Z,7.50
2018-12-29T17:41:26.334Z,7.60
2018-12-29T17:43:30.725Z,7.50
2018-12-29T17:45:35.211Z,7.60
2018-12-29T17:47:39.637Z,7.60
2018-12-29T17:49:44.001Z,7.60
2018-12-29T17:51:48.392Z,7.60
2018-12-29T17:53:52.788Z,7.60
2018-12-29T17:55:57.172Z,7.60
2018-12-29T17:58:01.588Z,7.60
2018-12-29T18:00:06.406Z,7.60
2018-12-29T18:02:10.810Z,7.70
2018-12-29T18:04:15.266Z,7.60
2018-12-29T18:06:19.702Z,7.60
2018-12-29T18:08:24.205Z,7.60
2018-12-29T18:10:28.632Z,7.70
2018-12-29T18:12:33.060Z,7.70
2018-12-29T18:14:37.477Z,7.80
2018-12-29T18:16:41.914Z,7.80
2018-12-29T18:18:46.338Z,7.70
2018-12-29T18:20:50.731Z,7.80
2018-12-29T18:22:55.089Z,7.70
2018-12-29T18:24:59.837Z,7.80
2018-12-29T18:27:04.248Z,7.80
2018-12-29T18:29:08.662Z,7.80
2018-12-29T18:31:13.077Z,7.80
2018-12-29T18:33:17.481Z,7.80
2018-12-29T18:35:21.864Z,7.90
2018-12-29T18:37:26.233Z,7.80
2018-12-29T18:39:30.643Z,7.90
2018-12-29T18:41:41.270Z,7.90
2018-12-29T18:43:45.723Z,7.90
2018-12-29T18:45:50.094Z,7.90
2018-12-29T18:47:54.448Z,7.90
2018-12-29T18:49:58.863Z,7.90
2018-12-29T18:52:03.265Z,8.00
2018-12-29T18:54:07.646Z,8.00
2018-12-29T18:56:12.415Z,7.90
2018-12-29T18:58:17.671Z,8.00
2018-12-29T19:00:22.075Z,8.00
2018-12-29T19:02:26.474Z,8.00
2018-12-29T19:04:30.928Z,8.00
2018-12-29T19:06:35.299Z,8.00
2018-12-29T19:08:39.713Z,8.10
2018-12-29T19:10:44.121Z,8.10
2018-12-29T19:12:48.486Z,8.00
2018-12-29T19:14:52.877Z,8.00
2018-12-29T19:16:57.275Z,8.10
2018-12-29T19:19:02.171Z,8.10
2018-12-29T19:21:06.565Z,8.10
2018-12-29T19:23:10.934Z,8.20
2018-12-29T19:25:15.351Z,8.20
2018-12-29T19:27:20.624Z,8.20
2018-12-29T19:29:25.055Z,8.20
2018-12-29T19:31:29.521Z,8.20
2018-12-29T19:33:33.800Z,8.30
2018-12-29T19:35:38.195Z,8.30
2018-12-29T19:37:42.705Z,8.30
2018-12-29T19:39:47.097Z,8.30
2018-12-29T19:41:55.070Z,8.30
2018-12-29T19:43:55.979Z,8.30
2018-12-29T19:46:00.376Z,8.40
2018-12-29T19:48:04.785Z,8.40
2018-12-29T19:50:09.189Z,8.40
2018-12-29T19:52:13.633Z,8.40
2018-12-29T19:54:17.963Z,8.50
2018-12-29T19:56:22.937Z,8.50
2018-12-29T19:58:27.329Z,8.50
2018-12-29T20:00:31.690Z,8.60
2018-12-29T20:02:36.098Z,8.60
2018-12-29T20:04:40.505Z,8.60
2018-12-29T20:06:44.942Z,8.70
2018-12-29T20:08:49.441Z,8.70
2018-12-29T20:10:53.845Z,8.70
2018-12-29T20:12:58.252Z,8.80
2018-12-29T20:15:02.638Z,8.80
2018-12-29T20:17:08.712Z,8.80
2018-12-29T20:19:11.566Z,8.80
2018-12-29T20:21:15.932Z,8.80
2018-12-29T20:23:20.311Z,8.90
2018-12-29T20:25:24.894Z,8.90
2018-12-29T20:27:29.354Z,8.90
2018-12-29T20:29:34.629Z,8.90
2018-12-29T20:31:39.066Z,9.00
2018-12-29T20:33:43.512Z,9.00
2018-12-29T20:35:48.079Z,9.00
2018-12-29T20:37:52.572Z,9.00
2018-12-29T20:39:57.019Z,9.00
2018-12-29T20:42:01.428Z,9.00
2018-12-29T20:44:05.824Z,9.10
2018-12-29T20:46:10.446Z,9.10
2018-12-29T20:48:14.843Z,9.10
2018-12-29T20:50:19.754Z,9.10
2018-12-29T20:52:25.554Z,9.10
2018-12-29T20:54:29.961Z,9.10
2018-12-29T20:56:34.391Z,9.10
2018-12-29T20:58:38.874Z,9.10
2018-12-29T21:00:43.348Z,9.10
2018-12-29T21:02:47.850Z,9.10
2018-12-29T21:04:52.322Z,9.00
2018-12-29T21:06:56.846Z,9.10
2018-12-29T21:09:01.307Z,9.10
2018-12-29T21:11:05.811Z,9.00
2018-12-29T21:13:10.262Z,9.00
2018-12-29T21:15:14.641Z,9.00
2018-12-29T21:17:19.270Z,9.00
2018-12-29T21:19:23.684Z,9.00
2018-12-29T21:21:30.759Z,9.00
2018-12-29T21:23:35.665Z,9.00
2018-12-29T21:25:40.178Z,9.00
2018-12-29T21:27:44.683Z,9.00
2018-12-29T21:29:49.121Z,9.00
2018-12-29T21:31:53.621Z,8.90
2018-12-29T21:33:58.087Z,9.00
2018-12-29T21:36:02.767Z,9.00
2018-12-29T21:38:07.649Z,8.90
2018-12-29T21:40:12.670Z,8.90
2018-12-29T21:42:17.168Z,8.90
2018-12-29T21:46:37.109Z,8.90
2018-12-29T21:48:41.787Z,8.80
2018-12-29T21:50:46.253Z,8.80
2018-12-29T21:52:53.896Z,8.80
2018-12-29T21:54:58.721Z,8.80
2018-12-29T21:57:03.120Z,8.80
2018-12-29T21:59:07.640Z,8.80
2018-12-29T22:01:12.111Z,8.80
2018-12-29T22:03:16.523Z,8.80
2018-12-29T22:05:20.967Z,8.80
2018-12-29T22:07:25.405Z,8.70
2018-12-29T22:09:29.822Z,8.70
2018-12-29T22:11:34.683Z,8.70
2018-12-29T22:13:39.140Z,8.70
2018-12-29T22:15:43.562Z,8.70
2018-12-29T22:17:48.163Z,8.70
2018-12-29T22:19:53.456Z,8.70
2018-12-29T22:21:57.974Z,8.70
2018-12-29T22:24:02.525Z,8.70
2018-12-29T22:26:07.014Z,8.60
2018-12-29T22:28:11.448Z,8.70
2018-12-29T22:30:15.858Z,8.60
2018-12-29T22:32:20.290Z,8.60
2018-12-29T22:34:24.662Z,8.70
2018-12-29T22:36:29.142Z,8.60
2018-12-29T22:38:34.626Z,8.60
2018-12-29T22:40:38.990Z,8.60
2018-12-29T22:42:43.851Z,8.60
2018-12-29T22:44:48.242Z,8.60
2018-12-29T22:46:52.650Z,8.60
2018-12-29T22:48:57.105Z,8.60
2018-12-29T22:51:01.508Z,8.60
2018-12-29T22:53:05.923Z,8.60
2018-12-29T22:55:10.661Z,8.50
2018-12-29T22:57:16.111Z,8.60
2018-12-29T22:59:20.515Z,8.60
2018-12-29T23:01:25.045Z,8.60
2018-12-29T23:03:29.466Z,8.50
2018-12-29T23:05:33.891Z,8.60
2018-12-29T23:07:39.938Z,8.60
2018-12-29T23:09:44.362Z,8.60
2018-12-29T23:11:49.102Z,8.60
2018-12-29T23:13:53.506Z,8.60
2018-12-29T23:15:57.918Z,8.60
2018-12-29T23:18:02.630Z,8.60
2018-12-29T23:20:07.193Z,8.60
2018-12-29T23:22:12.173Z,8.60
2018-12-29T23:24:16.583Z,8.60
2018-12-29T23:26:20.976Z,8.60
2018-12-29T23:28:25.504Z,8.60
2018-12-29T23:30:31.611Z,8.60
2018-12-29T23:32:36.046Z,8.60
2018-12-29T23:34:40.518Z,8.60
2018-12-29T23:36:45.471Z,8.60
2018-12-29T23:38:50.030Z,8.60
2018-12-29T23:40:54.390Z,8.60
2018-12-29T23:42:58.766Z,8.60
2018-12-29T23:45:03.232Z,8.60
2018-12-29T23:47:07.591Z,8.60
2018-12-29T23:49:12.016Z,8.60
2018-12-29T23:51:16.509Z,8.70
2018-12-29T23:53:20.886Z,8.70
2018-12-29T23:55:25.387Z,8.60
2018-12-29T23:57:29.831Z,8.70
2018-12-29T23:59:34.246Z,8.60
